Arthur Monteiro

Olheiro - Flamengo
19 Ago 2027
Quinta-feira
Processo

Personalidade

Adaptabilidade (9) Ambição (1) Controvérsia (16) Lealdade (4) Pressão (13) Profissionalismo (19) Espírito Esportivo (20) Temperamento (10)

Perfil

Estilo de Treinamento Democrático
Licença Continental C
Determinação 13
Gestão de Pessoas 14
Motivação 10
Disciplina 8
Satisfação no Trabalho
73%
Fadiga
0%
Função Olheiro
Salário 103.7K p/s
Contrato 14.03.2028

Desempenho

Comportamento Bom
Eficácia do Treinamento
41%
Desenvolvimento do Jogador
35%
Prevenção de Lesões
55%
Implementação Tática
80%

Eventos Recentes

Participou de uma reunião de recrutamento agora
Recomendou um alvo de transferência agora
Participou de uma reunião de recrutamento agora
Participou de uma reunião de recrutamento 7d atrás
Recomendou um alvo de transferência 7d atrás
Participou de uma reunião de recrutamento 7d atrás
Participou de uma reunião de recrutamento 7d atrás
Participou de uma reunião de recrutamento 14d atrás

Monitorando agora

241
Jogador Clube Status Habilidade Confiança Observado Última observação Último voto
Ruan Tressoldi Atlético Mineiro Ativo 118 / 124 83% 1 19.07.2027 Aprovar
Diego Hernández Sport Recife Ativo 122 / 122 30% 1 / 1m 07.07.2027 -
Federico Chiesa Liverpool Ativo 159 / 151 40% 5 30.05.2027 -
Bradley Barcola Liverpool Ativo 158 / 161 40% 5 30.05.2027 -
Borja Sainz Fiorentina Ativo 148 / 144 40% 8 30.05.2027 -
Jérémy Doku Manchester City Ativo 173 / 161 40% 3 28.05.2027 -
Moisés Caicedo Chelsea Ativo 165 / 164 40% 5 28.05.2027 Observar
Gabriel Martinelli Brighton Ativo 165 / 165 40% 2 28.05.2027 -
Georginio Rutter Brighton Ativo 151 / 149 40% 3 27.05.2027 -
Kai Havertz Arsenal Ativo 162 / 158 40% 3 27.05.2027 -
Harry Clarke Preston Ativo 126 / 126 40% 2 27.05.2027 -
Vinícius Júnior Arsenal Ativo 180 / 171 40% 4 26.05.2027 -
Xavi Simons Tottenham Ativo 162 / 157 40% 2 26.05.2027 -
Derensili Sanches Fernandes Huddersfield Town Ativo 130 / 128 40% 2 25.05.2027 -
Cole Palmer Chelsea Ativo 174 / 169 40% 2 25.05.2027 Mais informações
Harry Wilson Leeds United Ativo 149 / 145 40% 2 24.05.2027 -
Phil Foden Manchester City Ativo 176 / 170 40% 4 24.05.2027 -
Carlos Vicente Birmingham Ativo 145 / 143 40% 4 23.05.2027 -
Kerem Aktürkoğlu Fenerbahce Ativo 141 / 146 40% 2 23.05.2027 -
Callum Doyle Wrexham Ativo 131 / 132 40% 2 23.05.2027 -
Amadou Onana Aston Villa Ativo 153 / 156 40% 2 23.05.2027 Mais informações
Tyler Adams Bournemouth Ativo 153 / 155 40% 2 22.05.2027 -
Reece James Chelsea Ativo 175 / 170 40% 1 22.05.2027 -
Nuno Tavares Lazio Ativo 150 / 147 40% 1 21.05.2027 -
Nico González Newcastle United Ativo 156 / 159 40% 1 21.05.2027 -
Dango Ouattara Brentford Ativo 145 / 140 40% 2 20.05.2027 -
Ronald Swansea City Ativo 128 / 127 40% 1 20.05.2027 -
Matheus Araújo Oeste Ativo 89 / 89 30% 1 / 1m 19.05.2027 -
Wellerson Sampaio Correa Ativo 101 / 101 30% 1 / 1m 19.05.2027 -
Matthijs de Ligt Manchester United Ativo 156 / 166 40% 2 17.05.2027 -
Curtis Jones Inter Ativo 164 / 156 40% 4 17.05.2027 -
Alexander Isak Liverpool Ativo 172 / 172 40% 2 17.05.2027 -
Isaiah Jones Luton Town Ativo 128 / 129 40% 1 17.05.2027 -
Jan Paul van Hecke Tottenham Ativo 160 / 154 40% 1 16.05.2027 Mais informações
William Saliba Arsenal Ativo 175 / 177 40% 1 16.05.2027 -
Sven Botman Newcastle United Ativo 160 / 154 40% 1 16.05.2027 -
Mats Wieffer Brighton Ativo 143 / 148 40% 4 14.05.2027 -
Cody Gakpo Liverpool Ativo 156 / 158 40% 1 14.05.2027 -
Alessandro Buongiorno Sassuolo Ativo 153 / 157 40% 1 14.05.2027 -
Jacob Ramsey Newcastle United Ativo 154 / 151 40% 2 11.05.2027 -
Mohammed Kudus Tottenham Ativo 163 / 155 40% 3 11.05.2027 -
Kiernan Dewsbury-Hall Everton Ativo 148 / 147 40% 2 11.05.2027 -
Tom Fellows Southampton Ativo 134 / 131 40% 3 09.05.2027 -
Florian Wirtz Liverpool Ativo 173 / 178 40% 2 09.05.2027 -
Rayan Cherki Manchester City Ativo 161 / 159 40% 1 09.05.2027 -
Noussair Mazraoui Manchester United Ativo 152 / 149 40% 3 08.05.2027 -
Francisco Conceição Juventus Ativo 158 / 157 40% 1 07.05.2027 -
Kasey McAteer Ipswich Town Ativo 126 / 127 40% 1 06.05.2027 -
Carlos Alcaraz Everton Ativo 144 / 150 40% 4 03.05.2027 -
Nicolas Jackson Aston Villa Ativo 154 / 152 40% 1 02.05.2027 -
Antoine Semenyo Manchester City Ativo 165 / 152 40% 1 01.05.2027 -
Martin Ødegaard Arsenal Ativo 184 / 178 40% 1 01.05.2027 -
João Pedro Chelsea Ativo 157 / 160 40% 3 30.04.2027 Observar
Giacomo Raspadori Atalanta Ativo 153 / 146 40% 7 30.04.2027 -
Ryan Sessegnon Fulham Ativo 146 / 144 40% 1 29.04.2027 -
Sandro Tonali Tottenham Ativo 173 / 175 40% 1 27.04.2027 -
Kevin Fulham Ativo 147 / 147 40% 1 27.04.2027 -
Matt O'Riley Brighton Ativo 144 / 148 40% 1 26.04.2027 -
Callum Hudson-Odoi Nottingham Forest Ativo 147 / 151 40% 1 26.04.2027 -
William Gomes Porto Ativo 148 / 140 40% 6 24.04.2027 -
Rico Lewis Manchester City Ativo 147 / 158 40% 2 23.04.2027 -
Williams Manyama SuperSport United Ativo 119 / 114 40% 1 23.04.2027 -
Jake O'Brien Everton Ativo 147 / 153 40% 1 23.04.2027 -
Rodrigo Zalazar Sporting CP Ativo 151 / 153 40% 2 21.04.2027 -
Morgan Rogers Chelsea Ativo 164 / 163 40% 1 21.04.2027 -
Alejandro Zendejas Club America Ativo 143 / 136 40% 5 20.04.2027 -
Iván Fresneda Sporting CP Ativo 139 / 139 40% 3 18.04.2027 -
Francisco Moura Lusitânia Lourosa Ativo 140 / 143 40% 4 18.04.2027 -
Mason Mount Manchester United Ativo 151 / 151 40% 1 18.04.2027 -
Sergi Altimira Sporting CP Ativo 137 / 143 40% 1 18.04.2027 -
Quinten Timber Crystal Palace Ativo 155 / 147 40% 1 18.04.2027 -
Dodi Lukébakio Benfica Ativo 149 / 143 40% 5 16.04.2027 -
Telmo Arcanjo Vitoria Guimaraes Ativo 129 / 117 40% 2 15.04.2027 -
Ole Pohlmann Rio Ave Ativo 123 / 125 40% 2 15.04.2027 -
Makan Aïko Tondela Ativo 119 / 113 40% 2 14.04.2027 -
Finn Azaz Southampton Ativo 129 / 131 40% 1 14.04.2027 -
Adrien Truffert Bournemouth Ativo 156 / 155 40% 1 13.04.2027 -
João Mendes Vitoria Guimaraes Ativo 122 / 122 40% 1 12.04.2027 -
Rodrigo Pinheiro Famalicao Ativo 125 / 132 40% 1 12.04.2027 -
Welington Southampton Ativo 127 / 131 40% 1 12.04.2027 -
Mario Dorgeles Braga Ativo 132 / 133 40% 1 12.04.2027 -
Pau Víctor AVS Ativo 138 / 129 40% 8 11.04.2027 -
Geny Sporting CP Ativo 145 / 144 40% 5 11.04.2027 -
Naïs Djouahra Arouca Ativo 126 / 115 40% 2 11.04.2027 -
Tamble Monteiro Rio Ave Ativo 115 / 113 40% 1 06.04.2027 -
Joe Gelhardt Hull City Ativo 130 / 140 40% 1 06.04.2027 -
Gustavo Silva Vitoria Guimaraes Ativo 124 / 126 40% 3 05.04.2027 -
Nordi Mukiele Sunderland Ativo 148 / 141 40% 3 03.04.2027 -
Xaver Schlager Nottingham Forest Ativo 145 / 142 40% 4 03.04.2027 -
Ismaïla Sarr Crystal Palace Ativo 151 / 143 40% 3 03.04.2027 -
Anton Stach Leeds United Ativo 151 / 146 40% 3 02.04.2027 -
Osame Sahraoui LOSC Lille Ativo 147 / 139 40% 4 31.03.2027 -
Hwang In-Beom Porto Ativo 147 / 138 40% 4 31.03.2027 -
Che Adams Torino Ativo 140 / 135 40% 1 31.03.2027 -
Joaquín Panichelli Le Havre AC Ativo 149 / 139 40% 3 30.03.2027 -
Alfonso Trezza Arouca Ativo 124 / 126 40% 2 29.03.2027 -
Morgan Whittaker Middlesbrough Ativo 137 / 131 40% 4 29.03.2027 -
Santi García Gil Vicente Ativo 131 / 137 40% 3 29.03.2027 -
Víctor Gómez Braga Ativo 134 / 143 40% 3 28.03.2027 -
Malick Fofana Sunderland Ativo 137 / 141 40% 2 28.03.2027 -
Heorhii Sudakov Benfica Ativo 142 / 146 40% 4 26.03.2027 -
Tino Livramento Newcastle United Ativo 161 / 151 40% 1 25.03.2027 -
Sofiane Diop OGC Nice Ativo 141 / 145 40% 1 25.03.2027 -
Aaron Hickey Brentford Ativo 144 / 152 40% 2 24.03.2027 -
Alberto Costa Porto Ativo 149 / 153 40% 9 24.03.2027 -
Iker Benito Queretaro Ativo 126 / 123 40% 2 24.03.2027 -
Ozziel Herrera Tigres Ativo 132 / 131 40% 3 23.03.2027 -
Ansu Fati Monaco Ativo 136 / 132 40% 1 22.03.2027 -
Figueiredo Alverca Ativo 131 / 123 40% 6 20.03.2027 -
Valery Académico de Viseu Ativo 122 / 120 40% 1 20.03.2027 -
Ritsu Doan Benfica Ativo 147 / 156 40% 3 18.03.2027 -
Jhon Arias Palmeiras Ativo 139 / 143 40% 2 18.03.2027 -
Fotis Ioannidis Rio Ave Ativo 141 / 132 40% 2 17.03.2027 -
José Manuel López Palmeiras Ativo 136 / 135 40% 5 17.03.2027 -
Erick Sánchez OGC Nice Ativo 148 / 140 40% 7 17.03.2027 -
Leandro Antonetti Estrela da Amadora Ativo 102 / 105 40% 1 17.03.2027 -
Yankuba Minteh Brighton Ativo 154 / 159 40% 1 17.03.2027 -
Barış Alper Yılmaz Galatasaray Ativo 145 / 151 40% 4 16.03.2027 -
Félix Lemaréchal Club Brugge Ativo 143 / 144 40% 3 12.03.2027 -
Roberto Fernández Braga Ativo 144 / 139 40% 3 11.03.2027 -
Malcom Al Jazira Ativo 151 / 141 40% 1 10.03.2027 -
Amine Adli Bournemouth Ativo 139 / 149 40% 2 08.03.2027 -
Gianluca Prestianni Benfica Ativo 138 / 141 40% 2 04.03.2027 -
Orbelín Pineda Monterrey Ativo 143 / 137 40% 2 03.03.2027 -
Dylan Nandín Arouca Ativo 117 / 112 40% 1 01.03.2027 -
Nicolò Tresoldi Club Brugge Ativo 132 / 140 40% 1 01.03.2027 -
Florentino Luís Ipswich Town Ativo 137 / 133 40% 1 26.02.2027 -
Adriano Bertaccini Anderlecht Ativo 127 / 127 40% 1 23.02.2027 -
Marezi Portsmouth Ativo 120 / 124 40% 1 23.02.2027 -
Jalen Blesa Rio Ave Ativo 115 / 125 40% 1 21.02.2027 -
Adnan Courtois KV Oostende Ativo 139 / 134 40% 3 19.02.2027 -
Vinícius Lopes Santa Clara Ativo 117 / 116 40% 1 19.02.2027 -
Will Lankshear Middlesbrough Ativo 124 / 135 40% 1 19.02.2027 -
Toni Fruk KV Mechelen Ativo 136 / 126 40% 1 19.02.2027 -
Jan Virgili Club Brugge Ativo 134 / 126 40% 1 19.02.2027 -
Gabri Martínez Braga Ativo 136 / 127 40% 2 17.02.2027 -
Juanlu Bournemouth Ativo 144 / 140 40% 1 15.02.2027 -
Beni Mukendi Vitoria Guimaraes Ativo 130 / 123 40% 1 15.02.2027 -
Victor Froholdt Porto Ativo 144 / 163 40% 4 13.02.2027 -
Taichi Fukui Arouca Ativo 130 / 136 40% 1 11.02.2027 -
Óscar Mingueza Crystal Palace Ativo 151 / 146 40% 5 10.02.2027 -
Brian Rodríguez Club America Ativo 128 / 124 40% 1 10.02.2027 -
Razvan Balasa Crvena Zvezda Ativo 149 / 151 40% 8 07.02.2027 -
Henrique Araújo Casa Pia Ativo 126 / 113 40% 2 06.02.2027 -
Guilherme Neiva AVS Ativo 109 / 109 40% 1 05.02.2027 -
Evidence Makgopa Orlando Pirates Ativo 112 / 119 40% 1 05.02.2027 -
Olívio Tomé Benfica Ativo 111 / 118 40% 1 03.02.2027 -
Luís Henrique Inter Ativo 139 / 147 40% 1 03.02.2027 -
Gonzalo Fulham Ativo 142 / 149 40% 1 03.02.2027 -
Igor Burnley Ativo 142 / 139 40% 1 03.02.2027 -
Aune Heggebø West Bromwich Albion Ativo 126 / 132 40% 1 31.01.2027 -
Yousef Salech Cardiff City Ativo 131 / 116 40% 1 31.01.2027 -
Samu Aghehowa AS Roma Ativo 149 / 150 40% 7 30.01.2027 -
Martín Tejón Maritimo Ativo 119 / 123 40% 2 25.01.2027 -
Miguel Falé Pacos de Ferreira Ativo 100 / 111 40% 2 25.01.2027 -
Luis Vázquez Birmingham Ativo 134 / 129 40% 1 25.01.2027 -
Korede Osundina Casa Pia Ativo 116 / 122 40% 1 20.01.2027 -
Gabriel Veron Porto Ativo 129 / 125 40% 3 19.01.2027 -
Themba Ngcobo SuperSport United Ativo 116 / 116 40% 1 08.01.2027 -
Manfred Ugalde Spartak Moscow Ativo 138 / 127 40% 1 04.01.2027 -
Dawda Camara Alverca Ativo 113 / 121 40% 1 23.12.2026 -
Ruben van Bommel Ferencvaros Ativo 139 / 141 40% 1 22.12.2026 -
Matheus Pereira Cruzeiro Ativo 138 / 144 40% 1 21.12.2026 -
Jean-Philippe Mateta Crystal Palace Ativo 151 / 159 40% 11 30.11.2026 -
João Neves Paris Saint-Germain Ativo 164 / 170 40% 1 29.11.2026 -
Manuel Locatelli Juventus Ativo 151 / 144 40% 2 28.11.2026 -
Rúben Neves Al-Hilal Ativo 144 / 150 40% 1 28.11.2026 -
Leo Castledine Middlesbrough Ativo 123 / 138 40% 1 27.11.2026 -
Robin Roefs Sunderland Ativo 142 / 138 40% 1 25.11.2026 -
Vanderson Monaco Ativo 145 / 146 40% 1 21.11.2026 -
Omar Alderete Sunderland Ativo 154 / 148 40% 1 20.11.2026 -
Lewis Cook Bournemouth Ativo 144 / 147 40% 3 19.11.2026 -
Vangelis Pavlidis Twente Ativo 149 / 157 40% 8 17.11.2026 -
Lisandro Martínez Manchester United Ativo 159 / 161 40% 4 17.11.2026 -
Dominic Solanke Tottenham Ativo 153 / 146 40% 4 17.11.2026 -
Tiago Santos LOSC Lille Ativo 141 / 138 40% 2 15.11.2026 -
Steven Bergwijn Al-Ittihad Ativo 144 / 152 40% 4 13.11.2026 Observar
Pau Torres Aston Villa Ativo 155 / 141 40% 3 09.11.2026 -
Randal Kolo Muani Juventus Ativo 146 / 150 40% 3 09.11.2026 -
Matvey Safonov Paris Saint-Germain Ativo 149 / 151 40% 4 07.11.2026 -
Senne Lammens Manchester United Ativo 141 / 146 40% 2 07.11.2026 -
Patrick Berg Bodo/Glimt Ativo 137 / 147 40% 2 03.11.2026 -
Tomás Araújo Benfica Ativo 147 / 136 40% 3 03.11.2026 -
Luis Suárez Chelsea Ativo 158 / 161 40% 4 01.11.2026 -
Fikayo Tomori AC Milan Ativo 145 / 154 40% 1 30.10.2026 -
Pedro Porro Tottenham Ativo 146 / 136 40% 1 27.10.2026 -
Cheick Doucouré Crystal Palace Ativo 146 / 144 40% 2 24.10.2026 -
Alan Varela Porto Ativo 138 / 138 40% 2 22.10.2026 -
Gonçalo Inácio Sporting CP Ativo 151 / 147 40% 2 21.10.2026 -
Dean Henderson Crystal Palace Ativo 147 / 139 40% 2 19.10.2026 -
Endrick Real Madrid Ativo 141 / 148 40% 1 17.10.2026 -
Malick Thiaw West Ham United Ativo 156 / 146 40% 2 13.10.2026 -
Elliot Anderson Manchester City Ativo 155 / 149 40% 1 13.10.2026 -
Diogo Costa Manchester City Ativo 156 / 155 40% 1 11.10.2026 -
Erick Reyes Toluca Ativo 135 / 134 40% 1 08.10.2026 -
Conor Gallagher Tottenham Ativo 149 / 157 40% 2 02.10.2026 -
Cristhian Mosquera Arsenal Ativo 151 / 140 40% 1 02.10.2026 -
Ferdi Kadıoğlu Brighton Ativo 148 / 149 40% 1 02.10.2026 -
Mateo Mendoza Godoy Cruz Ativo 118 / 121 40% 1 01.10.2026 -
Jack Hinshelwood Brighton Ativo 141 / 143 40% 1 30.09.2026 -
Pierre Kalulu Juventus Ativo 157 / 161 40% 1 30.09.2026 -
Ousmane Diomande Nottingham Forest Ativo 152 / 145 40% 1 29.09.2026 -
Gabriel Gudmundsson Leeds United Ativo 145 / 151 40% 1 27.09.2026 -
Ian Maatsen Aston Villa Ativo 145 / 145 40% 1 27.09.2026 -
Malo Gusto Chelsea Ativo 146 / 156 40% 2 26.09.2026 -
Martim Fernandes Porto Ativo 133 / 138 40% 1 26.09.2026 -
Matty Cash Aston Villa Ativo 152 / 156 40% 1 21.09.2026 -
Guillaume Restes Toulouse FC Ativo 129 / 128 40% 1 20.09.2026 -
Yehvann Diouf OGC Nice Ativo 136 / 131 40% 1 20.09.2026 -
Josep Martínez Inter Ativo 134 / 138 40% 1 19.09.2026 -
Edoardo Motta Lazio Ativo 113 / 135 40% 1 19.09.2026 -
Francesco Pio Esposito Inter Ativo 139 / 136 40% 2 16.09.2026 -
Benjamin White Arsenal Ativo 154 / 145 40% 2 14.09.2026 -
Marcus Rashford Manchester United Ativo 161 / 153 40% 6 13.09.2026 -
Antonee Robinson Fulham Ativo 157 / 141 40% 1 13.09.2026 -
Santiago Castro AS Roma Ativo 146 / 154 40% 1 10.09.2026 -
Assane Diao Lazio Ativo 137 / 138 40% 1 07.09.2026 -
Gonçalo Ramos AC Milan Ativo 157 / 157 40% 2 02.09.2026 -
Dušan Vlahović Juventus Ativo 159 / 160 40% 1 02.09.2026 -
Erick Vitória Ativo 132 / 132 30% 1 / 1m 26.08.2026 -
Jarrod Bowen West Ham United Ativo 159 / 146 40% 2 25.08.2026 -
Matías Fernández-Pardo Newcastle United Ativo 135 / 146 40% 1 25.08.2026 -
Luca Koleosho Paris FC Ativo 121 / 141 40% 1 20.08.2026 -
Jader Santa Clara Ativo 114 / 117 56% 2 / 2m 19.08.2026 -
Fabri Vitória Ativo 124 / 124 52% 1 / 1m 19.08.2026 -
Anderson Pato Vitória Ativo 100 / 103 42% 1 / 1m 19.08.2026 -
Ilyas Ansah Hull City Ativo 127 / 138 40% 1 18.08.2026 -
Ferran Torres Paris Saint-Germain Ativo 166 / 156 40% 1 18.08.2026 -
Mateus Mané Manchester United Ativo 130 / 147 40% 1 15.08.2026 -
Lima Atletico Goianiense Ativo 84 / 89 30% 1 / 1m 12.08.2026 -
André Luís Mirassol Ativo 123 / 123 30% 1 / 1m 12.08.2026 -
Georges Mikautadze Villarreal Ativo 151 / 156 40% 1 09.08.2026 -
Rayan Bournemouth Ativo 136 / 145 40% 1 07.08.2026 -
Senny Mayulu Paris Saint-Germain Ativo 142 / 141 40% 1 06.08.2026 -
Donyell Malen AS Roma Ativo 141 / 148 40% 1 06.08.2026 -
Dani Vivian Athletic Bilbao Ativo 155 / 159 40% 1 06.08.2026 -
Marc Cucurella Real Madrid Ativo 155 / 140 40% 1 06.08.2026 -
Jaka Bijol Leeds United Ativo 149 / 143 40% 1 06.08.2026 -
Adam Wharton Crystal Palace Ativo 142 / 147 40% 1 03.08.2026 -
João Simões Sporting CP Ativo 131 / 138 40% 1 02.08.2026 -
Ismael Saibari Bayern Munich Ativo 148 / 143 40% 1 01.08.2026 -